sensor_id;sensor_type;location;lat;lon;timestamp;temperature;humidity
16635;DHT22;8431;52.458;9.998;2022-11-21T00:00:50;-0.90;99.90
16635;DHT22;8431;52.458;9.998;2022-11-21T00:03:17;-1.00;99.90
16635;DHT22;8431;52.458;9.998;2022-11-21T00:05:47;-1.00;99.90
16635;DHT22;8431;52.458;9.998;2022-11-21T00:08:17;-1.00;99.90
16635;DHT22;8431;52.458;9.998;2022-11-21T00:10:45;-0.90;99.90
16635;DHT22;8431;52.458;9.998;2022-11-21T00:13:13;-1.00;99.90
16635;DHT22;8431;52.458;9.998;2022-11-21T00:15:41;-1.00;99.90
16635;DHT22;8431;52.458;9.998;2022-11-21T00:18:08;-0.90;99.90
16635;DHT22;8431;52.458;9.998;2022-11-21T00:20:36;-0.90;99.90
16635;DHT22;8431;52.458;9.998;2022-11-21T00:23:04;-0.90;99.90
16635;DHT22;8431;52.458;9.998;2022-11-21T00:25:32;-0.80;99.90
16635;DHT22;8431;52.458;9.998;2022-11-21T00:27:59;-0.80;99.90
16635;DHT22;8431;52.458;9.998;2022-11-21T00:30:26;-0.90;99.90
16635;DHT22;8431;52.458;9.998;2022-11-21T00:32:53;-0.90;99.90
16635;DHT22;8431;52.458;9.998;2022-11-21T00:35:20;-0.80;99.90
16635;DHT22;8431;52.458;9.998;2022-11-21T00:37:47;-0.70;99.90
16635;DHT22;8431;52.458;9.998;2022-11-21T00:40:17;-0.80;99.90
16635;DHT22;8431;52.458;9.998;2022-11-21T00:42:43;-0.80;99.90
16635;DHT22;8431;52.458;9.998;2022-11-21T00:45:11;-0.90;99.90
16635;DHT22;8431;52.458;9.998;2022-11-21T00:47:38;-0.80;99.90
16635;DHT22;8431;52.458;9.998;2022-11-21T00:50:05;-0.80;99.90
16635;DHT22;8431;52.458;9.998;2022-11-21T00:52:32;-0.80;99.90
16635;DHT22;8431;52.458;9.998;2022-11-21T00:54:59;-0.80;99.90
16635;DHT22;8431;52.458;9.998;2022-11-21T00:57:28;-0.60;99.90
16635;DHT22;8431;52.458;9.998;2022-11-21T00:59:55;-0.60;99.90
16635;DHT22;8431;52.458;9.998;2022-11-21T01:02:22;-0.50;99.90
16635;DHT22;8431;52.458;9.998;2022-11-21T01:04:49;-0.50;99.90
16635;DHT22;8431;52.458;9.998;2022-11-21T01:07:17;-0.50;99.90
16635;DHT22;8431;52.458;9.998;2022-11-21T01:09:44;-0.50;99.90
16635;DHT22;8431;52.458;9.998;2022-11-21T01:12:11;-0.50;99.90
16635;DHT22;8431;52.458;9.998;2022-11-21T01:14:39;-0.60;99.90
16635;DHT22;8431;52.458;9.998;2022-11-21T01:17:06;-0.50;99.90
16635;DHT22;8431;52.458;9.998;2022-11-21T01:19:33;-0.60;99.90
16635;DHT22;8431;52.458;9.998;2022-11-21T01:22:00;-0.70;99.90
16635;DHT22;8431;52.458;9.998;2022-11-21T01:24:27;-0.60;99.90
16635;DHT22;8431;52.458;9.998;2022-11-21T01:26:54;-0.60;99.90
16635;DHT22;8431;52.458;9.998;2022-11-21T01:29:21;-0.50;99.90
16635;DHT22;8431;52.458;9.998;2022-11-21T01:31:50;-0.50;99.90
16635;DHT22;8431;52.458;9.998;2022-11-21T01:34:17;-0.50;99.90
16635;DHT22;8431;52.458;9.998;2022-11-21T01:36:44;-0.50;99.90
16635;DHT22;8431;52.458;9.998;2022-11-21T01:39:11;-0.60;99.90
16635;DHT22;8431;52.458;9.998;2022-11-21T01:41:40;-0.80;99.90
16635;DHT22;8431;52.458;9.998;2022-11-21T01:44:15;-0.90;99.90
16635;DHT22;8431;52.458;9.998;2022-11-21T01:46:43;-0.90;99.90
16635;DHT22;8431;52.458;9.998;2022-11-21T01:49:15;-0.80;99.90
16635;DHT22;8431;52.458;9.998;2022-11-21T01:51:46;-0.70;99.90
16635;DHT22;8431;52.458;9.998;2022-11-21T01:54:17;-0.80;99.90
16635;DHT22;8431;52.458;9.998;2022-11-21T01:56:48;-0.70;99.90
16635;DHT22;8431;52.458;9.998;2022-11-21T01:59:19;-0.70;99.90
16635;DHT22;8431;52.458;9.998;2022-11-21T02:01:50;-0.70;99.90
16635;DHT22;8431;52.458;9.998;2022-11-21T02:04:19;-0.80;99.90
16635;DHT22;8431;52.458;9.998;2022-11-21T02:06:48;-0.90;99.90
16635;DHT22;8431;52.458;9.998;2022-11-21T02:09:15;-1.10;99.90
16635;DHT22;8431;52.458;9.998;2022-11-21T02:11:46;-1.20;99.90
16635;DHT22;8431;52.458;9.998;2022-11-21T02:14:15;-1.30;99.90
16635;DHT22;8431;52.458;9.998;2022-11-21T02:16:42;-1.30;99.90
16635;DHT22;8431;52.458;9.998;2022-11-21T02:19:16;-1.30;99.90
16635;DHT22;8431;52.458;9.998;2022-11-21T02:21:50;-1.30;99.90
16635;DHT22;8431;52.458;9.998;2022-11-21T02:24:25;-1.40;99.90
16635;DHT22;8431;52.458;9.998;2022-11-21T02:26:55;-1.50;99.90
16635;DHT22;8431;52.458;9.998;2022-11-21T02:29:22;-1.50;99.90
16635;DHT22;8431;52.458;9.998;2022-11-21T02:31:49;-1.60;99.90
16635;DHT22;8431;52.458;9.998;2022-11-21T02:34:17;-1.70;99.90
16635;DHT22;8431;52.458;9.998;2022-11-21T02:36:45;-1.80;99.90
16635;DHT22;8431;52.458;9.998;2022-11-21T02:39:18;-1.90;99.90
16635;DHT22;8431;52.458;9.998;2022-11-21T02:41:50;-1.90;99.90
16635;DHT22;8431;52.458;9.998;2022-11-21T02:44:25;-1.90;99.90
16635;DHT22;8431;52.458;9.998;2022-11-21T02:46:53;-1.90;99.90
16635;DHT22;8431;52.458;9.998;2022-11-21T02:49:27;-2.00;99.90
16635;DHT22;8431;52.458;9.998;2022-11-21T02:51:56;-2.00;99.90
16635;DHT22;8431;52.458;9.998;2022-11-21T02:54:23;-2.00;99.90
16635;DHT22;8431;52.458;9.998;2022-11-21T02:56:50;-2.00;99.90
16635;DHT22;8431;52.458;9.998;2022-11-21T02:59:17;-2.00;99.90
16635;DHT22;8431;52.458;9.998;2022-11-21T03:01:45;-2.10;99.90
16635;DHT22;8431;52.458;9.998;2022-11-21T03:04:12;-2.20;99.90
16635;DHT22;8431;52.458;9.998;2022-11-21T03:06:39;-2.30;99.90
16635;DHT22;8431;52.458;9.998;2022-11-21T03:09:06;-2.30;99.90
16635;DHT22;8431;52.458;9.998;2022-11-21T03:11:33;-2.40;99.90
16635;DHT22;8431;52.458;9.998;2022-11-21T03:14:00;-2.50;99.90
16635;DHT22;8431;52.458;9.998;2022-11-21T03:16:27;-2.50;99.90
16635;DHT22;8431;52.458;9.998;2022-11-21T03:18:55;-2.60;99.90
16635;DHT22;8431;52.458;9.998;2022-11-21T03:21:24;-2.50;99.90
16635;DHT22;8431;52.458;9.998;2022-11-21T03:23:51;-2.60;99.90
16635;DHT22;8431;52.458;9.998;2022-11-21T03:26:18;-2.70;99.90
16635;DHT22;8431;52.458;9.998;2022-11-21T03:28:45;-2.70;99.90
16635;DHT22;8431;52.458;9.998;2022-11-21T03:31:12;-2.70;99.90
16635;DHT22;8431;52.458;9.998;2022-11-21T03:33:39;-2.80;99.90
16635;DHT22;8431;52.458;9.998;2022-11-21T03:36:07;-2.70;99.90
16635;DHT22;8431;52.458;9.998;2022-11-21T03:38:34;-2.70;99.90
16635;DHT22;8431;52.458;9.998;2022-11-21T03:41:05;-2.70;99.90
16635;DHT22;8431;52.458;9.998;2022-11-21T03:43:52;-2.70;99.90
16635;DHT22;8431;52.458;9.998;2022-11-21T03:46:19;-2.70;99.90
16635;DHT22;8431;52.458;9.998;2022-11-21T03:48:46;-2.70;99.90
16635;DHT22;8431;52.458;9.998;2022-11-21T03:51:14;-2.70;99.90
16635;DHT22;8431;52.458;9.998;2022-11-21T03:53:41;-2.80;99.90
16635;DHT22;8431;52.458;9.998;2022-11-21T03:56:08;-2.70;99.90
16635;DHT22;8431;52.458;9.998;2022-11-21T03:58:36;-2.70;99.90
16635;DHT22;8431;52.458;9.998;2022-11-21T04:01:03;-2.70;99.90
16635;DHT22;8431;52.458;9.998;2022-11-21T04:03:30;-2.70;99.90
16635;DHT22;8431;52.458;9.998;2022-11-21T04:05:57;-2.70;99.90
16635;DHT22;8431;52.458;9.998;2022-11-21T04:08:26;-2.70;99.90
16635;DHT22;8431;52.458;9.998;2022-11-21T04:10:53;-2.80;99.90
16635;DHT22;8431;52.458;9.998;2022-11-21T04:13:21;-2.80;99.90
16635;DHT22;8431;52.458;9.998;2022-11-21T04:15:48;-2.90;99.90
16635;DHT22;8431;52.458;9.998;2022-11-21T04:18:15;-2.90;99.90
16635;DHT22;8431;52.458;9.998;2022-11-21T04:20:43;-2.90;99.90
16635;DHT22;8431;52.458;9.998;2022-11-21T04:23:10;-2.90;99.90
16635;DHT22;8431;52.458;9.998;2022-11-21T04:25:39;-3.10;99.90
16635;DHT22;8431;52.458;9.998;2022-11-21T04:28:11;-3.10;99.90
16635;DHT22;8431;52.458;9.998;2022-11-21T04:30:38;-3.10;99.90
16635;DHT22;8431;52.458;9.998;2022-11-21T04:33:05;-3.20;99.90
16635;DHT22;8431;52.458;9.998;2022-11-21T04:35:33;-3.20;99.90
16635;DHT22;8431;52.458;9.998;2022-11-21T04:38:00;-3.20;99.90
16635;DHT22;8431;52.458;9.998;2022-11-21T04:40:27;-3.20;99.90
16635;DHT22;8431;52.458;9.998;2022-11-21T04:42:56;-3.20;99.90
16635;DHT22;8431;52.458;9.998;2022-11-21T04:45:23;-3.30;99.90
16635;DHT22;8431;52.458;9.998;2022-11-21T04:47:50;-3.30;99.90
16635;DHT22;8431;52.458;9.998;2022-11-21T04:50:17;-3.30;99.90
16635;DHT22;8431;52.458;9.998;2022-11-21T04:52:48;-3.40;99.90
16635;DHT22;8431;52.458;9.998;2022-11-21T04:55:15;-3.40;99.90
16635;DHT22;8431;52.458;9.998;2022-11-21T04:57:43;-3.30;99.90
16635;DHT22;8431;52.458;9.998;2022-11-21T05:00:13;-3.40;99.90
16635;DHT22;8431;52.458;9.998;2022-11-21T05:02:40;-3.50;99.90
16635;DHT22;8431;52.458;9.998;2022-11-21T05:05:07;-3.40;99.90
16635;DHT22;8431;52.458;9.998;2022-11-21T05:07:35;-3.20;99.90
16635;DHT22;8431;52.458;9.998;2022-11-21T05:10:02;-3.20;99.90
16635;DHT22;8431;52.458;9.998;2022-11-21T05:12:30;-3.30;99.90
16635;DHT22;8431;52.458;9.998;2022-11-21T05:15:16;-3.40;99.90
16635;DHT22;8431;52.458;9.998;2022-11-21T05:17:43;-3.40;99.90
16635;DHT22;8431;52.458;9.998;2022-11-21T05:20:11;-3.30;99.90
16635;DHT22;8431;52.458;9.998;2022-11-21T05:22:38;-3.20;99.90
16635;DHT22;8431;52.458;9.998;2022-11-21T05:25:05;-3.20;99.90
16635;DHT22;8431;52.458;9.998;2022-11-21T05:27:32;-3.10;99.90
16635;DHT22;8431;52.458;9.998;2022-11-21T05:29:59;-3.00;99.90
16635;DHT22;8431;52.458;9.998;2022-11-21T05:32:28;-3.00;99.90
16635;DHT22;8431;52.458;9.998;2022-11-21T05:34:55;-3.00;99.90
16635;DHT22;8431;52.458;9.998;2022-11-21T05:37:22;-3.10;99.90
16635;DHT22;8431;52.458;9.998;2022-11-21T05:39:49;-3.10;99.90
16635;DHT22;8431;52.458;9.998;2022-11-21T05:42:16;-3.20;99.90
16635;DHT22;8431;52.458;9.998;2022-11-21T05:45:05;-3.30;99.90
16635;DHT22;8431;52.458;9.998;2022-11-21T05:47:32;-3.20;99.90
16635;DHT22;8431;52.458;9.998;2022-11-21T05:49:59;-3.30;99.90
16635;DHT22;8431;52.458;9.998;2022-11-21T05:52:27;-3.30;99.90
16635;DHT22;8431;52.458;9.998;2022-11-21T05:54:54;-3.40;99.90
16635;DHT22;8431;52.458;9.998;2022-11-21T05:57:21;-3.40;99.90
16635;DHT22;8431;52.458;9.998;2022-11-21T05:59:48;-3.40;99.90
16635;DHT22;8431;52.458;9.998;2022-11-21T06:02:16;-3.50;99.90
16635;DHT22;8431;52.458;9.998;2022-11-21T06:05:02;-3.50;99.90
16635;DHT22;8431;52.458;9.998;2022-11-21T06:07:29;-3.60;99.90
16635;DHT22;8431;52.458;9.998;2022-11-21T06:09:56;-3.70;99.90
16635;DHT22;8431;52.458;9.998;2022-11-21T06:12:23;-3.80;99.90
16635;DHT22;8431;52.458;9.998;2022-11-21T06:14:50;-3.80;99.90
16635;DHT22;8431;52.458;9.998;2022-11-21T06:17:17;-3.80;99.90
16635;DHT22;8431;52.458;9.998;2022-11-21T06:19:44;-3.80;99.90
16635;DHT22;8431;52.458;9.998;2022-11-21T06:22:12;-3.70;99.90
16635;DHT22;8431;52.458;9.998;2022-11-21T06:24:39;-3.80;99.90
16635;DHT22;8431;52.458;9.998;2022-11-21T06:27:06;-3.70;99.90
16635;DHT22;8431;52.458;9.998;2022-11-21T06:29:33;-3.70;99.90
16635;DHT22;8431;52.458;9.998;2022-11-21T06:32:00;-3.70;99.90
16635;DHT22;8431;52.458;9.998;2022-11-21T06:34:27;-3.70;99.90
16635;DHT22;8431;52.458;9.998;2022-11-21T06:36:54;-3.70;99.90
16635;DHT22;8431;52.458;9.998;2022-11-21T06:39:23;-3.70;99.90
16635;DHT22;8431;52.458;9.998;2022-11-21T06:41:50;-3.80;99.90
16635;DHT22;8431;52.458;9.998;2022-11-21T06:44:17;-4.00;99.90
16635;DHT22;8431;52.458;9.998;2022-11-21T06:46:44;-3.90;99.90
16635;DHT22;8431;52.458;9.998;2022-11-21T06:49:11;-3.90;99.90
16635;DHT22;8431;52.458;9.998;2022-11-21T06:51:38;-3.90;99.90
16635;DHT22;8431;52.458;9.998;2022-11-21T06:54:05;-3.90;99.90
16635;DHT22;8431;52.458;9.998;2022-11-21T06:56:34;-4.00;99.90
16635;DHT22;8431;52.458;9.998;2022-11-21T06:59:01;-4.10;99.90
16635;DHT22;8431;52.458;9.998;2022-11-21T07:01:28;-4.20;99.90
16635;DHT22;8431;52.458;9.998;2022-11-21T07:03:55;-4.20;99.90
16635;DHT22;8431;52.458;9.998;2022-11-21T07:06:23;-4.10;99.90
16635;DHT22;8431;52.458;9.998;2022-11-21T07:08:51;-4.00;99.90
16635;DHT22;8431;52.458;9.998;2022-11-21T07:11:19;-4.00;99.90
16635;DHT22;8431;52.458;9.998;2022-11-21T07:13:48;-4.00;99.90
16635;DHT22;8431;52.458;9.998;2022-11-21T07:16:14;-4.00;99.90
16635;DHT22;8431;52.458;9.998;2022-11-21T07:18:41;-3.90;99.90
16635;DHT22;8431;52.458;9.998;2022-11-21T07:21:09;-3.80;99.90
16635;DHT22;8431;52.458;9.998;2022-11-21T07:23:36;-3.80;99.90
16635;DHT22;8431;52.458;9.998;2022-11-21T07:26:05;-3.80;99.90
16635;DHT22;8431;52.458;9.998;2022-11-21T07:28:33;-3.80;99.90
16635;DHT22;8431;52.458;9.998;2022-11-21T07:31:01;-3.90;99.90
16635;DHT22;8431;52.458;9.998;2022-11-21T07:33:29;-3.90;99.90
16635;DHT22;8431;52.458;9.998;2022-11-21T07:35:56;-3.80;99.90
16635;DHT22;8431;52.458;9.998;2022-11-21T07:38:24;-3.70;99.90
16635;DHT22;8431;52.458;9.998;2022-11-21T07:40:52;-3.60;99.90
16635;DHT22;8431;52.458;9.998;2022-11-21T07:43:19;-3.50;99.90
16635;DHT22;8431;52.458;9.998;2022-11-21T07:45:46;-3.50;99.90
16635;DHT22;8431;52.458;9.998;2022-11-21T07:48:14;-3.70;99.90
16635;DHT22;8431;52.458;9.998;2022-11-21T07:50:41;-3.80;99.90
16635;DHT22;8431;52.458;9.998;2022-11-21T07:53:09;-3.90;99.90
16635;DHT22;8431;52.458;9.998;2022-11-21T07:55:36;-3.80;99.90
16635;DHT22;8431;52.458;9.998;2022-11-21T07:58:05;-3.80;99.90
16635;DHT22;8431;52.458;9.998;2022-11-21T08:00:34;-3.70;99.90
16635;DHT22;8431;52.458;9.998;2022-11-21T08:03:03;-3.60;99.90
16635;DHT22;8431;52.458;9.998;2022-11-21T08:05:35;-3.50;99.90
16635;DHT22;8431;52.458;9.998;2022-11-21T08:08:02;-3.40;99.90
16635;DHT22;8431;52.458;9.998;2022-11-21T08:10:30;-3.30;99.90
16635;DHT22;8431;52.458;9.998;2022-11-21T08:12:57;-3.20;99.90
16635;DHT22;8431;52.458;9.998;2022-11-21T08:15:24;-3.20;99.90
16635;DHT22;8431;52.458;9.998;2022-11-21T08:17:51;-2.90;99.90
16635;DHT22;8431;52.458;9.998;2022-11-21T08:20:18;-2.80;99.90
16635;DHT22;8431;52.458;9.998;2022-11-21T08:22:46;-2.70;99.90
16635;DHT22;8431;52.458;9.998;2022-11-21T08:25:13;-2.60;99.90
16635;DHT22;8431;52.458;9.998;2022-11-21T08:27:40;-2.50;99.90
16635;DHT22;8431;52.458;9.998;2022-11-21T08:30:10;-2.60;99.90
16635;DHT22;8431;52.458;9.998;2022-11-21T08:32:37;-2.60;99.90
16635;DHT22;8431;52.458;9.998;2022-11-21T08:35:05;-2.60;99.90
16635;DHT22;8431;52.458;9.998;2022-11-21T08:37:32;-2.50;99.90
16635;DHT22;8431;52.458;9.998;2022-11-21T08:40:01;-2.40;99.90
16635;DHT22;8431;52.458;9.998;2022-11-21T08:42:28;-2.20;99.90
16635;DHT22;8431;52.458;9.998;2022-11-21T08:44:55;-2.20;99.90
16635;DHT22;8431;52.458;9.998;2022-11-21T08:47:22;-2.10;99.90
16635;DHT22;8431;52.458;9.998;2022-11-21T08:49:49;-2.10;99.90
16635;DHT22;8431;52.458;9.998;2022-11-21T08:52:16;-2.10;99.90
16635;DHT22;8431;52.458;9.998;2022-11-21T08:54:43;-2.10;99.90
16635;DHT22;8431;52.458;9.998;2022-11-21T08:57:12;-2.10;99.90
16635;DHT22;8431;52.458;9.998;2022-11-21T08:59:39;-2.10;99.90
16635;DHT22;8431;52.458;9.998;2022-11-21T09:02:08;-2.20;99.90
16635;DHT22;8431;52.458;9.998;2022-11-21T09:04:36;-2.30;99.90
16635;DHT22;8431;52.458;9.998;2022-11-21T09:07:03;-2.20;99.90
16635;DHT22;8431;52.458;9.998;2022-11-21T09:09:30;-2.10;99.90
16635;DHT22;8431;52.458;9.998;2022-11-21T09:11:57;-1.90;99.90
16635;DHT22;8431;52.458;9.998;2022-11-21T09:14:26;-1.80;99.90
16635;DHT22;8431;52.458;9.998;2022-11-21T09:17:12;-1.70;99.90
16635;DHT22;8431;52.458;9.998;2022-11-21T09:19:56;-1.60;99.90
16635;DHT22;8431;52.458;9.998;2022-11-21T09:22:23;-1.40;99.90
16635;DHT22;8431;52.458;9.998;2022-11-21T09:24:51;-1.30;99.90
16635;DHT22;8431;52.458;9.998;2022-11-21T09:27:18;-1.30;99.90
16635;DHT22;8431;52.458;9.998;2022-11-21T09:29:46;-1.20;99.90
16635;DHT22;8431;52.458;9.998;2022-11-21T09:32:13;-1.20;99.90
16635;DHT22;8431;52.458;9.998;2022-11-21T09:34:40;-1.20;99.90
16635;DHT22;8431;52.458;9.998;2022-11-21T09:37:07;-1.20;99.90
16635;DHT22;8431;52.458;9.998;2022-11-21T09:39:34;-1.30;99.90
16635;DHT22;8431;52.458;9.998;2022-11-21T09:42:13;-1.20;99.90
16635;DHT22;8431;52.458;9.998;2022-11-21T09:44:59;-1.10;99.90
16635;DHT22;8431;52.458;9.998;2022-11-21T09:47:29;-1.10;99.90
16635;DHT22;8431;52.458;9.998;2022-11-21T09:50:00;-1.00;99.90
16635;DHT22;8431;52.458;9.998;2022-11-21T09:52:34;-1.00;99.90
16635;DHT22;8431;52.458;9.998;2022-11-21T09:55:06;-1.00;99.90
16635;DHT22;8431;52.458;9.998;2022-11-21T09:57:52;-1.00;99.90
16635;DHT22;8431;52.458;9.998;2022-11-21T10:00:22;-1.10;99.90
16635;DHT22;8431;52.458;9.998;2022-11-21T10:02:50;-1.10;99.90
16635;DHT22;8431;52.458;9.998;2022-11-21T10:05:24;-1.10;99.90
16635;DHT22;8431;52.458;9.998;2022-11-21T10:08:00;-1.10;99.90
16635;DHT22;8431;52.458;9.998;2022-11-21T10:10:40;-0.90;99.90
16635;DHT22;8431;52.458;9.998;2022-11-21T10:13:24;-0.80;99.90
16635;DHT22;8431;52.458;9.998;2022-11-21T10:16:11;-0.70;99.90
16635;DHT22;8431;52.458;9.998;2022-11-21T10:19:03;-0.70;99.90
16635;DHT22;8431;52.458;9.998;2022-11-21T10:21:47;-0.70;99.90
16635;DHT22;8431;52.458;9.998;2022-11-21T10:24:42;-0.90;99.90
16635;DHT22;8431;52.458;9.998;2022-11-21T10:27:16;-0.90;99.90
16635;DHT22;8431;52.458;9.998;2022-11-21T10:30:05;-0.90;99.90
16635;DHT22;8431;52.458;9.998;2022-11-21T10:33:04;-0.90;99.90
16635;DHT22;8431;52.458;9.998;2022-11-21T10:35:54;-0.90;99.90
16635;DHT22;8431;52.458;9.998;2022-11-21T10:38:24;-0.90;99.90
16635;DHT22;8431;52.458;9.998;2022-11-21T10:41:00;-0.80;99.90
16635;DHT22;8431;52.458;9.998;2022-11-21T10:43:35;-0.80;99.90
16635;DHT22;8431;52.458;9.998;2022-11-21T10:46:22;-0.70;99.90
16635;DHT22;8431;52.458;9.998;2022-11-21T10:48:55;-0.70;99.90
16635;DHT22;8431;52.458;9.998;2022-11-21T10:51:34;-0.60;99.90
16635;DHT22;8431;52.458;9.998;2022-11-21T10:54:07;-0.60;99.90
16635;DHT22;8431;52.458;9.998;2022-11-21T10:57:14;-0.60;99.90
16635;DHT22;8431;52.458;9.998;2022-11-21T10:59:55;-0.50;99.90
16635;DHT22;8431;52.458;9.998;2022-11-21T11:02:25;-0.30;99.90
16635;DHT22;8431;52.458;9.998;2022-11-21T11:05:17;-0.20;99.90
16635;DHT22;8431;52.458;9.998;2022-11-21T11:07:59;0.00;99.90
16635;DHT22;8431;52.458;9.998;2022-11-21T11:10:27;0.20;99.90
16635;DHT22;8431;52.458;9.998;2022-11-21T11:12:55;0.30;99.90
16635;DHT22;8431;52.458;9.998;2022-11-21T11:15:53;0.30;99.90
16635;DHT22;8431;52.458;9.998;2022-11-21T11:18:22;0.30;99.90
16635;DHT22;8431;52.458;9.998;2022-11-21T11:20:51;0.20;99.90
16635;DHT22;8431;52.458;9.998;2022-11-21T11:23:26;0.20;99.90
16635;DHT22;8431;52.458;9.998;2022-11-21T11:25:54;0.20;99.90
16635;DHT22;8431;52.458;9.998;2022-11-21T11:28:22;0.30;99.90
16635;DHT22;8431;52.458;9.998;2022-11-21T11:30:51;0.30;99.90
16635;DHT22;8431;52.458;9.998;2022-11-21T11:33:33;0.40;99.90
16635;DHT22;8431;52.458;9.998;2022-11-21T11:36:13;0.60;99.90
16635;DHT22;8431;52.458;9.998;2022-11-21T11:38:51;0.60;99.90
16635;DHT22;8431;52.458;9.998;2022-11-21T11:41:38;0.80;99.90
16635;DHT22;8431;52.458;9.998;2022-11-21T11:44:34;0.90;99.90
16635;DHT22;8431;52.458;9.998;2022-11-21T11:47:23;1.00;99.90
16635;DHT22;8431;52.458;9.998;2022-11-21T11:49:59;1.10;99.90
16635;DHT22;8431;52.458;9.998;2022-11-21T11:52:46;1.20;99.90
16635;DHT22;8431;52.458;9.998;2022-11-21T11:55:20;1.20;99.90
16635;DHT22;8431;52.458;9.998;2022-11-21T11:57:49;1.10;99.90
16635;DHT22;8431;52.458;9.998;2022-11-21T12:00:26;1.00;99.90
16635;DHT22;8431;52.458;9.998;2022-11-21T12:02:59;1.10;99.90
16635;DHT22;8431;52.458;9.998;2022-11-21T12:05:29;1.10;99.90
16635;DHT22;8431;52.458;9.998;2022-11-21T12:08:06;1.10;99.90
16635;DHT22;8431;52.458;9.998;2022-11-21T12:10:41;1.10;99.90
16635;DHT22;8431;52.458;9.998;2022-11-21T12:13:24;1.00;99.90
16635;DHT22;8431;52.458;9.998;2022-11-21T12:15:56;1.00;99.90
16635;DHT22;8431;52.458;9.998;2022-11-21T12:18:29;0.90;99.90
16635;DHT22;8431;52.458;9.998;2022-11-21T12:21:04;0.80;99.90
16635;DHT22;8431;52.458;9.998;2022-11-21T12:23:40;0.80;99.90
16635;DHT22;8431;52.458;9.998;2022-11-21T12:26:39;0.90;99.90
16635;DHT22;8431;52.458;9.998;2022-11-21T12:29:22;1.00;99.90
16635;DHT22;8431;52.458;9.998;2022-11-21T12:32:03;1.00;99.90
16635;DHT22;8431;52.458;9.998;2022-11-21T12:34:43;1.10;99.90
16635;DHT22;8431;52.458;9.998;2022-11-21T12:37:21;1.10;99.90
16635;DHT22;8431;52.458;9.998;2022-11-21T12:40:05;1.10;99.90
16635;DHT22;8431;52.458;9.998;2022-11-21T12:42:45;1.00;99.90
16635;DHT22;8431;52.458;9.998;2022-11-21T12:45:28;0.90;99.90
16635;DHT22;8431;52.458;9.998;2022-11-21T12:48:16;0.80;99.90
16635;DHT22;8431;52.458;9.998;2022-11-21T12:51:38;0.80;99.90
16635;DHT22;8431;52.458;9.998;2022-11-21T12:54:43;0.70;99.90
16635;DHT22;8431;52.458;9.998;2022-11-21T12:57:17;0.80;99.90
16635;DHT22;8431;52.458;9.998;2022-11-21T12:59:55;0.70;99.90
16635;DHT22;8431;52.458;9.998;2022-11-21T13:02:52;0.70;99.90
16635;DHT22;8431;52.458;9.998;2022-11-21T13:05:26;0.70;99.90
16635;DHT22;8431;52.458;9.998;2022-11-21T13:08:01;0.70;99.90
16635;DHT22;8431;52.458;9.998;2022-11-21T13:10:30;0.70;99.90
16635;DHT22;8431;52.458;9.998;2022-11-21T13:13:04;0.70;99.90
16635;DHT22;8431;52.458;9.998;2022-11-21T13:15:40;0.70;99.90
16635;DHT22;8431;52.458;9.998;2022-11-21T13:18:18;0.70;99.90
16635;DHT22;8431;52.458;9.998;2022-11-21T13:20:47;0.60;99.90
16635;DHT22;8431;52.458;9.998;2022-11-21T13:23:36;0.60;99.90
16635;DHT22;8431;52.458;9.998;2022-11-21T13:29:12;0.50;99.90
16635;DHT22;8431;52.458;9.998;2022-11-21T13:31:40;0.60;99.90
16635;DHT22;8431;52.458;9.998;2022-11-21T13:34:33;0.50;99.90
16635;DHT22;8431;52.458;9.998;2022-11-21T13:37:01;0.50;99.90
16635;DHT22;8431;52.458;9.998;2022-11-21T13:39:29;0.50;99.90
16635;DHT22;8431;52.458;9.998;2022-11-21T13:42:14;0.50;99.90
16635;DHT22;8431;52.458;9.998;2022-11-21T13:45:38;0.50;99.90
16635;DHT22;8431;52.458;9.998;2022-11-21T13:57:23;0.30;99.90
16635;DHT22;8431;52.458;9.998;2022-11-21T14:05:58;0.30;99.90
16635;DHT22;8431;52.458;9.998;2022-11-21T14:08:29;0.30;99.90
16635;DHT22;8431;52.458;9.998;2022-11-21T14:10:56;0.30;99.90
16635;DHT22;8431;52.458;9.998;2022-11-21T14:13:27;0.30;99.90
16635;DHT22;8431;52.458;9.998;2022-11-21T14:16:17;0.20;99.90
16635;DHT22;8431;52.458;9.998;2022-11-21T14:18:49;0.20;99.90
16635;DHT22;8431;52.458;9.998;2022-11-21T14:21:19;0.10;99.90
16635;DHT22;8431;52.458;9.998;2022-11-21T14:23:47;0.10;99.90
16635;DHT22;8431;52.458;9.998;2022-11-21T14:26:15;0.10;99.90
16635;DHT22;8431;52.458;9.998;2022-11-21T14:28:46;0.10;99.90
16635;DHT22;8431;52.458;9.998;2022-11-21T14:31:14;0.00;99.90
16635;DHT22;8431;52.458;9.998;2022-11-21T14:33:41;0.00;99.90
16635;DHT22;8431;52.458;9.998;2022-11-21T14:36:13;0.00;99.90
16635;DHT22;8431;52.458;9.998;2022-11-21T14:38:42;-0.10;99.90
16635;DHT22;8431;52.458;9.998;2022-11-21T14:41:30;-0.10;99.90
16635;DHT22;8431;52.458;9.998;2022-11-21T14:44:13;-0.20;99.90
16635;DHT22;8431;52.458;9.998;2022-11-21T14:47:17;-0.20;99.90
16635;DHT22;8431;52.458;9.998;2022-11-21T14:49:48;-0.20;99.90
16635;DHT22;8431;52.458;9.998;2022-11-21T14:52:23;-0.30;99.90
16635;DHT22;8431;52.458;9.998;2022-11-21T14:54:57;-0.30;99.90
16635;DHT22;8431;52.458;9.998;2022-11-21T14:57:26;-0.40;99.90
16635;DHT22;8431;52.458;9.998;2022-11-21T14:59:55;-0.40;99.90
16635;DHT22;8431;52.458;9.998;2022-11-21T15:02:24;-0.40;99.90
16635;DHT22;8431;52.458;9.998;2022-11-21T15:04:52;-0.50;99.90
16635;DHT22;8431;52.458;9.998;2022-11-21T15:07:25;-0.50;99.90
16635;DHT22;8431;52.458;9.998;2022-11-21T15:09:53;-0.60;99.90
16635;DHT22;8431;52.458;9.998;2022-11-21T15:12:26;-0.60;99.90
16635;DHT22;8431;52.458;9.998;2022-11-21T15:14:58;-0.70;99.90
16635;DHT22;8431;52.458;9.998;2022-11-21T15:17:28;-0.80;99.90
16635;DHT22;8431;52.458;9.998;2022-11-21T15:20:15;-0.90;99.90
16635;DHT22;8431;52.458;9.998;2022-11-21T15:22:46;-0.90;99.90
16635;DHT22;8431;52.458;9.998;2022-11-21T15:25:18;-1.00;99.90
16635;DHT22;8431;52.458;9.998;2022-11-21T15:27:46;-1.00;99.90
16635;DHT22;8431;52.458;9.998;2022-11-21T15:30:25;-1.00;99.90
16635;DHT22;8431;52.458;9.998;2022-11-21T15:33:09;-1.00;99.90
16635;DHT22;8431;52.458;9.998;2022-11-21T15:35:50;-1.10;99.90
16635;DHT22;8431;52.458;9.998;2022-11-21T15:38:26;-1.20;99.90
16635;DHT22;8431;52.458;9.998;2022-11-21T15:41:19;-1.20;99.90
16635;DHT22;8431;52.458;9.998;2022-11-21T15:43:51;-1.20;99.90
16635;DHT22;8431;52.458;9.998;2022-11-21T15:46:19;-1.30;99.90
16635;DHT22;8431;52.458;9.998;2022-11-21T15:48:50;-1.20;99.90
16635;DHT22;8431;52.458;9.998;2022-11-21T15:51:19;-1.30;99.90
16635;DHT22;8431;52.458;9.998;2022-11-21T15:53:48;-1.30;99.90
16635;DHT22;8431;52.458;9.998;2022-11-21T15:56:20;-1.30;99.90
16635;DHT22;8431;52.458;9.998;2022-11-21T15:58:48;-1.30;99.90
16635;DHT22;8431;52.458;9.998;2022-11-21T16:01:17;-1.40;99.90
16635;DHT22;8431;52.458;9.998;2022-11-21T16:03:47;-1.40;99.90
16635;DHT22;8431;52.458;9.998;2022-11-21T16:06:15;-1.40;99.90
16635;DHT22;8431;52.458;9.998;2022-11-21T16:08:44;-1.40;99.90
16635;DHT22;8431;52.458;9.998;2022-11-21T16:11:22;-1.40;99.90
16635;DHT22;8431;52.458;9.998;2022-11-21T16:13:50;-1.40;99.90
16635;DHT22;8431;52.458;9.998;2022-11-21T16:16:18;-1.50;99.90
16635;DHT22;8431;52.458;9.998;2022-11-21T16:18:46;-1.50;99.90
16635;DHT22;8431;52.458;9.998;2022-11-21T16:21:13;-1.50;99.90
16635;DHT22;8431;52.458;9.998;2022-11-21T16:23:41;-1.60;99.90
16635;DHT22;8431;52.458;9.998;2022-11-21T16:26:09;-1.60;99.90
16635;DHT22;8431;52.458;9.998;2022-11-21T16:28:38;-1.60;99.90
16635;DHT22;8431;52.458;9.998;2022-11-21T16:31:06;-1.50;99.90
16635;DHT22;8431;52.458;9.998;2022-11-21T16:33:33;-1.60;99.90
16635;DHT22;8431;52.458;9.998;2022-11-21T16:36:01;-1.60;99.90